Time,TemperatureF,DewpointF,PressureIn,WindDirection,WindDirectionDegrees,WindSpeedMPH,WindSpeedGustMPH,Humidity,HourlyPrecipIn,Conditions,Clouds,dailyrainin,SoftwareType,DateUTC
2013-07-30 00:08:00,62.3,59.4,29.95,North,0,0.0,0.0,90,0.00,,,0.00,WUHU216HW,2013-07-30 04:08:00,
2013-07-30 00:23:00,62.1,59.2,29.95,WSW,248,0.6,0.9,90,0.00,,,0.00,WUHU216HW,2013-07-30 04:23:00,
2013-07-30 00:38:00,61.6,58.7,29.95,North,0,0.0,0.0,90,0.00,,,0.00,WUHU216HW,2013-07-30 04:38:00,
2013-07-30 00:53:00,61.4,58.5,29.95,North,0,0.0,0.0,90,0.00,,,0.00,WUHU216HW,2013-07-30 04:53:00,
2013-07-30 01:08:00,61.2,58.6,29.95,North,0,0.0,0.0,91,0.00,,,0.00,WUHU216HW,2013-07-30 05:08:00,
2013-07-30 01:23:00,61.0,58.4,29.95,North,0,0.0,0.0,91,0.00,,,0.00,WUHU216HW,2013-07-30 05:23:00,
2013-07-30 01:38:00,60.8,58.2,29.94,North,0,0.0,0.0,91,0.00,,,0.00,WUHU216HW,2013-07-30 05:38:00,
2013-07-30 01:53:00,60.5,57.9,29.95,North,0,0.0,0.0,91,0.00,,,0.00,WUHU216HW,2013-07-30 05:53:00,
2013-07-30 02:08:00,60.7,58.3,29.94,North,0,0.0,0.0,92,0.00,,,0.00,WUHU216HW,2013-07-30 06:08:00,
2013-07-30 02:23:00,60.5,58.1,29.94,North,0,0.0,0.0,92,0.00,,,0.00,WUHU216HW,2013-07-30 06:23:00,
2013-07-30 02:38:00,60.1,57.8,29.94,North,0,0.0,0.0,92,0.00,,,0.00,WUHU216HW,2013-07-30 06:38:00,
2013-07-30 02:53:00,59.9,57.6,29.94,North,0,0.0,0.0,92,0.00,,,0.00,WUHU216HW,2013-07-30 06:53:00,
2013-07-30 03:08:00,59.8,57.4,29.93,North,0,0.0,0.0,92,0.00,,,0.00,WUHU216HW,2013-07-30 07:08:00,
2013-07-30 03:23:00,59.6,57.2,29.93,NW,315,0.4,0.7,92,0.00,,,0.00,WUHU216HW,2013-07-30 07:23:00,
2013-07-30 03:38:00,59.2,56.9,29.93,NW,315,0.6,0.7,92,0.00,,,0.00,WUHU216HW,2013-07-30 07:38:00,
2013-07-30 03:53:00,59.0,56.7,29.94,North,0,0.0,0.0,92,0.00,,,0.00,WUHU216HW,2013-07-30 07:53:00,
2013-07-30 04:08:00,58.9,56.3,29.94,North,0,0.0,0.0,91,0.00,,,0.00,WUHU216HW,2013-07-30 08:08:00,
2013-07-30 04:23:00,58.7,56.1,29.94,North,0,0.0,0.0,91,0.00,,,0.00,WUHU216HW,2013-07-30 08:23:00,
2013-07-30 04:38:00,58.5,55.9,29.94,West,270,0.8,1.1,91,0.00,,,0.00,WUHU216HW,2013-07-30 08:38:00,
2013-07-30 04:53:00,58.1,55.5,29.94,West,270,0.2,0.2,91,0.00,,,0.00,WUHU216HW,2013-07-30 08:53:00,
2013-07-30 05:08:00,57.8,55.2,29.94,NW,315,0.2,0.2,91,0.00,,,0.00,WUHU216HW,2013-07-30 09:08:00,
2013-07-30 05:23:00,57.6,55.0,29.94,North,0,0.0,0.0,91,0.00,,,0.00,WUHU216HW,2013-07-30 09:23:00,
2013-07-30 05:38:00,57.6,55.0,29.95,North,0,0.0,0.0,91,0.00,,,0.00,WUHU216HW,2013-07-30 09:38:00,
2013-07-30 05:53:00,57.4,54.8,29.95,North,0,0.0,0.0,91,0.00,,,0.00,WUHU216HW,2013-07-30 09:53:00,
2013-07-30 06:08:00,57.2,54.9,29.95,NW,315,0.5,0.9,92,0.00,,,0.00,WUHU216HW,2013-07-30 10:08:00,
2013-07-30 06:23:00,57.2,54.9,29.95,WNW,302,0.6,1.1,92,0.00,,,0.00,WUHU216HW,2013-07-30 10:23:00,
2013-07-30 06:38:00,57.2,54.9,29.96,North,0,0.0,0.0,92,0.00,,,0.00,WUHU216HW,2013-07-30 10:38:00,
2013-07-30 06:53:00,57.4,55.1,29.95,North,0,0.0,0.0,92,0.00,,,0.00,WUHU216HW,2013-07-30 10:53:00,
2013-07-30 07:08:00,57.8,55.4,29.95,North,10,0.4,1.1,92,0.00,,,0.00,WUHU216HW,2013-07-30 11:08:00,
2013-07-30 07:23:00,58.1,56.2,29.95,North,0,0.0,0.0,93,0.00,,,0.00,WUHU216HW,2013-07-30 11:23:00,
2013-07-30 07:38:00,59.2,57.3,29.95,NE,35,0.6,1.6,93,0.00,,,0.00,WUHU216HW,2013-07-30 11:38:00,
2013-07-30 07:53:00,60.1,58.4,29.95,SW,225,0.7,1.8,94,0.00,,,0.00,WUHU216HW,2013-07-30 11:53:00,
2013-07-30 08:08:00,61.0,59.3,29.95,North,358,0.7,2.5,94,0.00,,,0.00,WUHU216HW,2013-07-30 12:08:00,
2013-07-30 08:23:00,63.0,61.0,29.96,East,86,0.8,2.0,93,0.00,,,0.00,WUHU216HW,2013-07-30 12:23:00,
2013-07-30 08:38:00,64.8,61.9,29.96,NE,42,0.9,2.5,90,0.00,,,0.00,WUHU216HW,2013-07-30 12:38:00,
2013-07-30 08:53:00,66.8,61.7,29.96,SSE,155,1.4,4.3,84,0.00,,,0.00,WUHU216HW,2013-07-30 12:53:00,
2013-07-30 09:08:00,68.4,60.9,29.96,SSW,204,2.9,7.8,77,0.00,,,0.00,WUHU216HW,2013-07-30 13:08:00,
2013-07-30 09:23:00,69.3,60.6,29.96,South,173,1.8,6.5,74,0.00,,,0.00,WUHU216HW,2013-07-30 13:23:00,
2013-07-30 09:38:00,70.4,61.3,29.96,NNE,19,1.5,4.0,73,0.00,,,0.00,WUHU216HW,2013-07-30 13:38:00,
2013-07-30 09:53:00,71.5,61.2,29.97,South,189,2.3,4.9,70,0.00,,,0.00,WUHU216HW,2013-07-30 13:53:00,
2013-07-30 10:08:00,72.2,59.8,29.97,SW,229,3.2,8.9,65,0.00,,,0.00,WUHU216HW,2013-07-30 14:08:00,
2013-07-30 10:23:00,72.4,59.5,29.98,WSW,246,2.3,5.4,64,0.00,,,0.00,WUHU216HW,2013-07-30 14:23:00,
2013-07-30 10:38:00,73.4,56.7,29.97,SW,228,1.9,5.4,56,0.00,,,0.00,WUHU216HW,2013-07-30 14:38:00,
2013-07-30 10:53:00,74.2,58.9,29.97,SSW,213,1.8,4.7,59,0.00,,,0.00,WUHU216HW,2013-07-30 14:53:00,
2013-07-30 11:08:00,74.9,59.6,29.97,WSW,244,2.3,5.8,59,0.00,,,0.00,WUHU216HW,2013-07-30 15:08:00,
2013-07-30 11:23:00,74.5,59.2,29.97,SW,236,2.6,7.2,59,0.00,,,0.00,WUHU216HW,2013-07-30 15:23:00,
2013-07-30 11:38:00,76.0,58.6,29.97,WSW,240,2.3,5.8,55,0.00,,,0.00,WUHU216HW,2013-07-30 15:38:00,
2013-07-30 11:53:00,75.6,58.8,29.97,SSW,203,1.8,8.3,56,0.00,,,0.00,WUHU216HW,2013-07-30 15:53:00,
2013-07-30 12:08:00,76.3,59.4,29.97,NNW,331,1.7,4.3,56,0.00,,,0.00,WUHU216HW,2013-07-30 16:08:00,
2013-07-30 12:23:00,76.3,55.8,29.96,SW,229,1.8,4.9,49,0.00,,,0.00,WUHU216HW,2013-07-30 16:23:00,
2013-07-30 12:38:00,76.7,58.2,29.96,NNE,25,1.3,4.0,53,0.00,,,0.00,WUHU216HW,2013-07-30 16:38:00,
2013-07-30 12:53:00,77.0,58.1,29.96,SW,225,1.8,6.3,52,0.00,,,0.00,WUHU216HW,2013-07-30 16:53:00,
2013-07-30 13:08:00,77.4,56.8,29.96,SW,218,2.1,8.5,49,0.00,,,0.00,WUHU216HW,2013-07-30 17:08:00,
2013-07-30 13:23:00,77.8,57.1,29.95,WSW,243,2.4,6.0,49,0.00,,,0.00,WUHU216HW,2013-07-30 17:23:00,
2013-07-30 13:38:00,78.3,56.3,29.95,SSW,213,2.1,5.4,47,0.00,,,0.00,WUHU216HW,2013-07-30 17:38:00,
2013-07-30 13:53:00,78.1,56.2,29.95,SW,224,2.5,5.4,47,0.00,,,0.00,WUHU216HW,2013-07-30 17:53:00,
2013-07-30 14:08:00,78.3,57.0,29.95,WSW,255,1.7,5.6,48,0.00,,,0.00,WUHU216HW,2013-07-30 18:08:00,
2013-07-30 14:23:00,77.8,54.6,29.95,WSW,253,2.4,6.5,45,0.00,,,0.00,WUHU216HW,2013-07-30 18:23:00,
2013-07-30 14:38:00,77.4,55.5,29.95,NW,305,2.2,6.7,47,0.00,,,0.00,WUHU216HW,2013-07-30 18:38:00,
2013-07-30 14:53:00,77.0,55.8,29.95,SE,146,1.9,5.4,48,0.00,,,0.00,WUHU216HW,2013-07-30 18:53:00,
2013-07-30 15:08:00,76.9,55.1,29.95,SW,222,3.2,11.4,47,0.00,,,0.00,WUHU216HW,2013-07-30 19:08:00,
2013-07-30 15:23:00,76.3,54.0,29.94,SW,215,3.3,7.6,46,0.00,,,0.00,WUHU216HW,2013-07-30 19:23:00,
2013-07-30 15:38:00,76.0,54.3,29.94,WSW,239,2.3,8.7,47,0.00,,,0.00,WUHU216HW,2013-07-30 19:38:00,
2013-07-30 15:53:00,75.8,55.4,29.94,SW,230,1.9,7.8,49,0.00,,,0.00,WUHU216HW,2013-07-30 19:53:00,
2013-07-30 16:08:00,75.4,55.0,29.94,SSW,199,2.1,4.9,49,0.00,,,0.00,WUHU216HW,2013-07-30 20:08:00,
2013-07-30 16:23:00,75.2,56.4,29.93,WSW,251,1.7,4.9,52,0.00,,,0.00,WUHU216HW,2013-07-30 20:23:00,
2013-07-30 16:38:00,74.9,56.1,29.93,South,180,1.3,4.5,52,0.00,,,0.00,WUHU216HW,2013-07-30 20:38:00,
2013-07-30 16:53:00,74.7,55.5,29.93,SSW,195,1.8,5.4,51,0.00,,,0.00,WUHU216HW,2013-07-30 20:53:00,
2013-07-30 17:08:00,74.2,55.4,29.93,West,267,1.6,6.0,52,0.00,,,0.00,WUHU216HW,2013-07-30 21:08:00,
2013-07-30 17:23:00,74.0,56.2,29.93,SSW,208,1.2,4.9,54,0.00,,,0.00,WUHU216HW,2013-07-30 21:23:00,
2013-07-30 17:38:00,73.8,56.5,29.93,SW,226,1.5,4.5,55,0.00,,,0.00,WUHU216HW,2013-07-30 21:38:00,
2013-07-30 17:53:00,73.4,56.2,29.93,SW,224,1.0,2.9,55,0.00,,,0.00,WUHU216HW,2013-07-30 21:53:00,
2013-07-30 18:08:00,72.7,56.5,29.93,NNE,14,1.1,2.5,57,0.00,,,0.00,WUHU216HW,2013-07-30 22:08:00,
2013-07-30 18:23:00,72.4,57.7,29.94,South,183,1.0,2.2,60,0.00,,,0.00,WUHU216HW,2013-07-30 22:23:00,
2013-07-30 18:38:00,71.6,57.5,29.94,WSW,238,0.9,2.5,61,0.00,,,0.00,WUHU216HW,2013-07-30 22:38:00,
2013-07-30 18:53:00,71.1,57.0,29.94,NNW,332,1.2,2.5,61,0.00,,,0.00,WUHU216HW,2013-07-30 22:53:00,
2013-07-30 19:08:00,70.6,57.3,29.95,NW,325,1.1,2.5,63,0.00,,,0.00,WUHU216HW,2013-07-30 23:08:00,
2013-07-30 19:23:00,70.2,57.9,29.95,WSW,245,1.1,3.4,65,0.00,,,0.00,WUHU216HW,2013-07-30 23:23:00,
2013-07-30 19:38:00,69.1,57.7,29.96,WSW,247,1.3,2.5,67,0.00,,,0.00,WUHU216HW,2013-07-30 23:38:00,
2013-07-30 19:53:00,68.2,57.7,29.96,WSW,247,1.3,2.2,69,0.00,,,0.00,WUHU216HW,2013-07-30 23:53:00,
2013-07-30 20:08:00,67.7,57.2,29.97,WSW,248,0.8,1.3,69,0.00,,,0.00,WUHU216HW,2013-07-31 00:08:00,
2013-07-30 20:23:00,67.0,56.9,29.97,WSW,248,1.1,2.0,70,0.00,,,0.00,WUHU216HW,2013-07-31 00:23:00,
2013-07-30 20:39:00,65.9,56.3,29.97,WSW,248,0.8,1.6,71,0.00,,,0.00,WUHU216HW,2013-07-31 00:39:00,
2013-07-30 20:54:00,65.3,56.1,29.97,WSW,248,0.7,1.3,72,0.00,,,0.00,WUHU216HW,2013-07-31 00:54:00,
2013-07-30 21:09:00,64.6,55.8,29.98,WSW,250,1.0,2.0,73,0.00,,,0.00,WUHU216HW,2013-07-31 01:09:00,
2013-07-30 21:24:00,64.1,55.6,29.99,WSW,248,0.7,1.3,74,0.00,,,0.00,WUHU216HW,2013-07-31 01:24:00,
2013-07-30 21:39:00,63.7,55.3,29.99,SW,229,0.8,1.3,74,0.00,,,0.00,WUHU216HW,2013-07-31 01:39:00,
2013-07-30 21:54:00,63.0,54.9,29.99,SW,225,0.3,0.4,75,0.00,,,0.00,WUHU216HW,2013-07-31 01:54:00,
2013-07-30 22:09:00,62.5,54.4,29.99,WNW,293,0.3,0.4,75,0.00,,,0.00,WUHU216HW,2013-07-31 02:09:00,
2013-07-30 22:24:00,61.6,54.3,30.00,WNW,293,0.4,0.4,77,0.00,,,0.00,WUHU216HW,2013-07-31 02:24:00,
2013-07-30 22:39:00,61.0,54.2,30.00,WNW,293,0.7,0.9,78,0.00,,,0.00,WUHU216HW,2013-07-31 02:39:00,
2013-07-30 22:54:00,60.8,54.4,30.00,WNW,297,0.5,0.7,79,0.00,,,0.00,WUHU216HW,2013-07-31 02:54:00,
2013-07-30 23:09:00,59.9,53.5,29.99,North,0,0.0,0.0,79,0.00,,,0.00,WUHU216HW,2013-07-31 03:09:00,
2013-07-30 23:24:00,59.8,53.6,30.00,WSW,255,0.5,1.1,80,0.00,,,0.00,WUHU216HW,2013-07-31 03:24:00,
2013-07-30 23:39:00,59.4,53.7,29.99,NW,315,0.4,0.4,81,0.00,,,0.00,WUHU216HW,2013-07-31 03:39:00,
2013-07-30 23:54:00,59.0,53.6,29.99,North,0,0.0,0.0,82,0.00,,,0.00,WUHU216HW,2013-07-31 03:54:00,